sensor_id;sensor_type;location;lat;lon;timestamp;P1;durP1;ratioP1;P2;durP2;ratioP2
37049;SDS011;22958;51.232;6.826;2023-09-19T00:00:57;14.48;;;3.22;;
37049;SDS011;22958;51.232;6.826;2023-09-19T00:03:23;18.98;;;3.78;;
37049;SDS011;22958;51.232;6.826;2023-09-19T00:08:15;18.90;;;2.53;;
37049;SDS011;22958;51.232;6.826;2023-09-19T00:10:41;13.40;;;2.95;;
37049;SDS011;22958;51.232;6.826;2023-09-19T00:13:07;24.85;;;3.33;;
37049;SDS011;22958;51.232;6.826;2023-09-19T00:15:38;14.85;;;2.67;;
37049;SDS011;22958;51.232;6.826;2023-09-19T00:18:05;15.73;;;3.42;;
37049;SDS011;22958;51.232;6.826;2023-09-19T00:20:32;22.55;;;3.25;;
37049;SDS011;22958;51.232;6.826;2023-09-19T00:23:00;16.50;;;2.88;;
37049;SDS011;22958;51.232;6.826;2023-09-19T00:25:33;17.63;;;2.65;;
37049;SDS011;22958;51.232;6.826;2023-09-19T00:28:00;25.85;;;3.03;;
37049;SDS011;22958;51.232;6.826;2023-09-19T00:30:26;14.03;;;2.77;;
37049;SDS011;22958;51.232;6.826;2023-09-19T00:32:52;19.73;;;3.20;;
37049;SDS011;22958;51.232;6.826;2023-09-19T00:35:20;16.63;;;2.80;;
37049;SDS011;22958;51.232;6.826;2023-09-19T00:37:49;14.48;;;4.10;;
37049;SDS011;22958;51.232;6.826;2023-09-19T00:40:15;15.57;;;3.38;;
37049;SDS011;22958;51.232;6.826;2023-09-19T00:42:44;10.43;;;2.83;;
37049;SDS011;22958;51.232;6.826;2023-09-19T00:45:11;12.75;;;2.58;;
37049;SDS011;22958;51.232;6.826;2023-09-19T00:47:48;21.30;;;3.78;;
37049;SDS011;22958;51.232;6.826;2023-09-19T00:50:15;10.60;;;2.97;;
37049;SDS011;22958;51.232;6.826;2023-09-19T00:52:47;13.80;;;2.67;;
37049;SDS011;22958;51.232;6.826;2023-09-19T00:55:14;25.75;;;3.47;;
37049;SDS011;22958;51.232;6.826;2023-09-19T00:57:41;15.80;;;2.45;;
37049;SDS011;22958;51.232;6.826;2023-09-19T01:00:07;16.13;;;2.92;;
37049;SDS011;22958;51.232;6.826;2023-09-19T01:02:41;18.00;;;3.00;;
37049;SDS011;22958;51.232;6.826;2023-09-19T01:05:10;17.45;;;2.83;;
37049;SDS011;22958;51.232;6.826;2023-09-19T01:07:37;23.48;;;3.97;;
37049;SDS011;22958;51.232;6.826;2023-09-19T01:10:06;19.67;;;3.40;;
37049;SDS011;22958;51.232;6.826;2023-09-19T01:12:51;14.25;;;2.58;;
37049;SDS011;22958;51.232;6.826;2023-09-19T01:15:37;15.98;;;2.83;;
37049;SDS011;22958;51.232;6.826;2023-09-19T01:20:57;22.33;;;4.15;;
37049;SDS011;22958;51.232;6.826;2023-09-19T01:29:17;18.25;;;2.67;;
37049;SDS011;22958;51.232;6.826;2023-09-19T01:31:54;13.02;;;2.83;;
37049;SDS011;22958;51.232;6.826;2023-09-19T01:34:26;15.80;;;2.63;;
37049;SDS011;22958;51.232;6.826;2023-09-19T01:36:52;14.17;;;2.67;;
37049;SDS011;22958;51.232;6.826;2023-09-19T01:39:17;22.30;;;2.70;;
37049;SDS011;22958;51.232;6.826;2023-09-19T01:44:11;15.82;;;2.83;;
37049;SDS011;22958;51.232;6.826;2023-09-19T01:46:47;15.60;;;2.90;;
37049;SDS011;22958;51.232;6.826;2023-09-19T01:49:26;18.57;;;2.77;;
37049;SDS011;22958;51.232;6.826;2023-09-19T01:52:13;15.00;;;2.92;;
37049;SDS011;22958;51.232;6.826;2023-09-19T01:54:51;19.02;;;2.80;;
37049;SDS011;22958;51.232;6.826;2023-09-19T01:57:22;15.50;;;2.95;;
37049;SDS011;22958;51.232;6.826;2023-09-19T02:00:06;26.35;;;3.92;;
37049;SDS011;22958;51.232;6.826;2023-09-19T02:02:34;24.15;;;3.35;;
37049;SDS011;22958;51.232;6.826;2023-09-19T02:05:03;17.02;;;3.42;;
37049;SDS011;22958;51.232;6.826;2023-09-19T02:07:30;21.65;;;3.53;;
37049;SDS011;22958;51.232;6.826;2023-09-19T02:09:59;16.52;;;3.42;;
37049;SDS011;22958;51.232;6.826;2023-09-19T02:12:31;18.70;;;2.67;;
37049;SDS011;22958;51.232;6.826;2023-09-19T02:14:58;20.13;;;3.45;;
37049;SDS011;22958;51.232;6.826;2023-09-19T02:17:24;15.25;;;2.83;;
37049;SDS011;22958;51.232;6.826;2023-09-19T02:19:53;15.95;;;3.45;;
37049;SDS011;22958;51.232;6.826;2023-09-19T02:22:23;15.45;;;2.78;;
37049;SDS011;22958;51.232;6.826;2023-09-19T02:24:49;15.57;;;2.83;;
37049;SDS011;22958;51.232;6.826;2023-09-19T02:27:15;19.23;;;3.20;;
37049;SDS011;22958;51.232;6.826;2023-09-19T02:32:08;19.58;;;2.97;;
37049;SDS011;22958;51.232;6.826;2023-09-19T02:34:36;19.85;;;3.22;;
37049;SDS011;22958;51.232;6.826;2023-09-19T02:37:04;18.70;;;2.80;;
37049;SDS011;22958;51.232;6.826;2023-09-19T02:39:33;13.68;;;2.78;;
37049;SDS011;22958;51.232;6.826;2023-09-19T02:41:59;15.63;;;3.53;;
37049;SDS011;22958;51.232;6.826;2023-09-19T02:44:25;18.17;;;3.33;;
37049;SDS011;22958;51.232;6.826;2023-09-19T02:46:50;21.60;;;3.27;;
37049;SDS011;22958;51.232;6.826;2023-09-19T02:49:16;19.93;;;3.40;;
37049;SDS011;22958;51.232;6.826;2023-09-19T02:51:43;14.48;;;2.80;;
37049;SDS011;22958;51.232;6.826;2023-09-19T02:54:09;20.23;;;2.88;;
37049;SDS011;22958;51.232;6.826;2023-09-19T02:56:35;18.02;;;2.58;;
37049;SDS011;22958;51.232;6.826;2023-09-19T02:59:02;20.10;;;3.03;;
37049;SDS011;22958;51.232;6.826;2023-09-19T03:01:27;13.13;;;3.30;;
37049;SDS011;22958;51.232;6.826;2023-09-19T03:03:53;16.10;;;3.13;;
37049;SDS011;22958;51.232;6.826;2023-09-19T03:06:19;13.10;;;2.92;;
37049;SDS011;22958;51.232;6.826;2023-09-19T03:11:13;13.90;;;2.97;;
37049;SDS011;22958;51.232;6.826;2023-09-19T03:13:40;19.23;;;2.72;;
37049;SDS011;22958;51.232;6.826;2023-09-19T03:16:07;16.13;;;3.60;;
37049;SDS011;22958;51.232;6.826;2023-09-19T03:18:33;13.83;;;2.87;;
37049;SDS011;22958;51.232;6.826;2023-09-19T03:23:25;19.00;;;2.92;;
37049;SDS011;22958;51.232;6.826;2023-09-19T03:25:51;19.45;;;3.83;;
37049;SDS011;22958;51.232;6.826;2023-09-19T03:28:20;15.80;;;3.20;;
37049;SDS011;22958;51.232;6.826;2023-09-19T03:30:57;19.98;;;3.20;;
37049;SDS011;22958;51.232;6.826;2023-09-19T03:35:53;21.23;;;2.50;;
37049;SDS011;22958;51.232;6.826;2023-09-19T03:38:19;15.02;;;3.60;;
37049;SDS011;22958;51.232;6.826;2023-09-19T03:40:46;24.35;;;3.63;;
37049;SDS011;22958;51.232;6.826;2023-09-19T03:43:12;12.82;;;2.95;;
37049;SDS011;22958;51.232;6.826;2023-09-19T03:45:38;17.90;;;2.67;;
37049;SDS011;22958;51.232;6.826;2023-09-19T03:50:33;22.80;;;3.25;;
37049;SDS011;22958;51.232;6.826;2023-09-19T03:52:59;14.07;;;3.30;;
37049;SDS011;22958;51.232;6.826;2023-09-19T03:55:24;20.33;;;3.20;;
37049;SDS011;22958;51.232;6.826;2023-09-19T03:57:50;14.27;;;2.50;;
37049;SDS011;22958;51.232;6.826;2023-09-19T04:00:15;19.70;;;2.63;;
37049;SDS011;22958;51.232;6.826;2023-09-19T04:02:46;17.17;;;2.78;;
37049;SDS011;22958;51.232;6.826;2023-09-19T04:05:11;26.47;;;3.40;;
37049;SDS011;22958;51.232;6.826;2023-09-19T04:07:37;17.90;;;3.43;;
37049;SDS011;22958;51.232;6.826;2023-09-19T04:10:02;16.53;;;2.90;;
37049;SDS011;22958;51.232;6.826;2023-09-19T04:12:28;20.00;;;2.83;;
37049;SDS011;22958;51.232;6.826;2023-09-19T04:14:54;15.40;;;2.90;;
37049;SDS011;22958;51.232;6.826;2023-09-19T04:17:19;18.10;;;3.00;;
37049;SDS011;22958;51.232;6.826;2023-09-19T04:19:45;22.43;;;3.60;;
37049;SDS011;22958;51.232;6.826;2023-09-19T04:22:11;11.60;;;2.90;;
37049;SDS011;22958;51.232;6.826;2023-09-19T04:27:03;14.32;;;2.67;;
37049;SDS011;22958;51.232;6.826;2023-09-19T04:29:29;21.98;;;3.03;;
37049;SDS011;22958;51.232;6.826;2023-09-19T04:31:55;21.00;;;3.67;;
37049;SDS011;22958;51.232;6.826;2023-09-19T04:34:24;14.18;;;2.80;;
37049;SDS011;22958;51.232;6.826;2023-09-19T04:36:50;21.33;;;2.55;;
37049;SDS011;22958;51.232;6.826;2023-09-19T04:39:16;14.37;;;3.03;;
37049;SDS011;22958;51.232;6.826;2023-09-19T04:41:42;19.48;;;3.28;;
37049;SDS011;22958;51.232;6.826;2023-09-19T04:44:10;17.30;;;3.22;;
37049;SDS011;22958;51.232;6.826;2023-09-19T04:46:38;19.30;;;3.45;;
37049;SDS011;22958;51.232;6.826;2023-09-19T04:49:04;23.60;;;2.93;;
37049;SDS011;22958;51.232;6.826;2023-09-19T04:51:29;21.63;;;3.43;;
37049;SDS011;22958;51.232;6.826;2023-09-19T04:53:59;23.52;;;3.88;;
37049;SDS011;22958;51.232;6.826;2023-09-19T04:56:25;19.87;;;2.83;;
37049;SDS011;22958;51.232;6.826;2023-09-19T04:58:50;20.23;;;3.63;;
37049;SDS011;22958;51.232;6.826;2023-09-19T05:01:16;15.90;;;2.77;;
37049;SDS011;22958;51.232;6.826;2023-09-19T05:03:41;23.17;;;3.30;;
37049;SDS011;22958;51.232;6.826;2023-09-19T05:06:07;20.43;;;3.37;;
37049;SDS011;22958;51.232;6.826;2023-09-19T05:08:33;13.40;;;3.03;;
37049;SDS011;22958;51.232;6.826;2023-09-19T05:10:58;19.07;;;3.83;;
37049;SDS011;22958;51.232;6.826;2023-09-19T05:13:27;25.67;;;4.25;;
37049;SDS011;22958;51.232;6.826;2023-09-19T05:15:52;18.90;;;3.00;;
37049;SDS011;22958;51.232;6.826;2023-09-19T05:18:18;23.60;;;3.77;;
37049;SDS011;22958;51.232;6.826;2023-09-19T05:20:43;15.03;;;3.40;;
37049;SDS011;22958;51.232;6.826;2023-09-19T05:23:09;18.83;;;3.40;;
37049;SDS011;22958;51.232;6.826;2023-09-19T05:25:37;22.80;;;3.33;;
37049;SDS011;22958;51.232;6.826;2023-09-19T05:28:07;25.35;;;3.97;;
37049;SDS011;22958;51.232;6.826;2023-09-19T05:30:34;21.77;;;3.45;;
37049;SDS011;22958;51.232;6.826;2023-09-19T05:33:03;17.58;;;3.03;;
37049;SDS011;22958;51.232;6.826;2023-09-19T05:35:29;18.60;;;2.72;;
37049;SDS011;22958;51.232;6.826;2023-09-19T05:37:55;15.98;;;3.53;;
37049;SDS011;22958;51.232;6.826;2023-09-19T05:40:23;24.42;;;3.97;;
37049;SDS011;22958;51.232;6.826;2023-09-19T05:42:49;17.23;;;3.00;;
37049;SDS011;22958;51.232;6.826;2023-09-19T05:45:15;26.33;;;3.80;;
37049;SDS011;22958;51.232;6.826;2023-09-19T05:47:47;17.75;;;3.88;;
37049;SDS011;22958;51.232;6.826;2023-09-19T05:50:13;31.45;;;4.60;;
37049;SDS011;22958;51.232;6.826;2023-09-19T05:52:39;21.40;;;3.50;;
37049;SDS011;22958;51.232;6.826;2023-09-19T05:55:07;20.30;;;3.30;;
37049;SDS011;22958;51.232;6.826;2023-09-19T05:57:34;24.58;;;3.80;;
37049;SDS011;22958;51.232;6.826;2023-09-19T05:59:59;23.65;;;3.78;;
37049;SDS011;22958;51.232;6.826;2023-09-19T06:02:25;15.60;;;3.27;;
37049;SDS011;22958;51.232;6.826;2023-09-19T06:04:55;15.25;;;2.42;;
37049;SDS011;22958;51.232;6.826;2023-09-19T06:07:22;22.77;;;3.42;;
37049;SDS011;22958;51.232;6.826;2023-09-19T06:09:51;17.88;;;3.20;;
37049;SDS011;22958;51.232;6.826;2023-09-19T06:12:17;23.10;;;4.13;;
37049;SDS011;22958;51.232;6.826;2023-09-19T06:14:43;17.27;;;3.50;;
37049;SDS011;22958;51.232;6.826;2023-09-19T06:17:08;20.10;;;3.90;;
37049;SDS011;22958;51.232;6.826;2023-09-19T06:19:34;25.63;;;4.40;;
37049;SDS011;22958;51.232;6.826;2023-09-19T06:21:59;22.20;;;3.90;;
37049;SDS011;22958;51.232;6.826;2023-09-19T06:24:25;18.67;;;3.17;;
37049;SDS011;22958;51.232;6.826;2023-09-19T06:26:51;21.63;;;4.00;;
37049;SDS011;22958;51.232;6.826;2023-09-19T06:29:18;22.05;;;3.88;;
37049;SDS011;22958;51.232;6.826;2023-09-19T06:31:45;21.60;;;3.20;;
37049;SDS011;22958;51.232;6.826;2023-09-19T06:34:12;19.52;;;3.58;;
37049;SDS011;22958;51.232;6.826;2023-09-19T06:36:40;18.23;;;2.97;;
37049;SDS011;22958;51.232;6.826;2023-09-19T06:39:06;15.47;;;3.53;;
37049;SDS011;22958;51.232;6.826;2023-09-19T06:41:31;22.07;;;3.83;;
37049;SDS011;22958;51.232;6.826;2023-09-19T06:43:57;22.23;;;3.60;;
37049;SDS011;22958;51.232;6.826;2023-09-19T06:46:23;21.93;;;4.30;;
37049;SDS011;22958;51.232;6.826;2023-09-19T06:48:49;23.90;;;3.22;;
37049;SDS011;22958;51.232;6.826;2023-09-19T06:51:17;26.90;;;3.90;;
37049;SDS011;22958;51.232;6.826;2023-09-19T06:53:43;15.85;;;2.92;;
37049;SDS011;22958;51.232;6.826;2023-09-19T06:56:09;22.83;;;3.40;;
37049;SDS011;22958;51.232;6.826;2023-09-19T06:58:35;22.42;;;4.00;;
37049;SDS011;22958;51.232;6.826;2023-09-19T07:01:01;24.85;;;4.15;;
37049;SDS011;22958;51.232;6.826;2023-09-19T07:03:28;21.13;;;3.58;;
37049;SDS011;22958;51.232;6.826;2023-09-19T07:05:53;19.63;;;4.00;;
37049;SDS011;22958;51.232;6.826;2023-09-19T07:08:20;18.42;;;3.55;;
37049;SDS011;22958;51.232;6.826;2023-09-19T07:10:46;23.90;;;4.20;;
37049;SDS011;22958;51.232;6.826;2023-09-19T07:13:15;26.85;;;3.25;;
37049;SDS011;22958;51.232;6.826;2023-09-19T07:15:42;23.30;;;4.00;;
37049;SDS011;22958;51.232;6.826;2023-09-19T07:18:12;24.17;;;2.92;;
37049;SDS011;22958;51.232;6.826;2023-09-19T07:20:42;25.58;;;3.47;;
37049;SDS011;22958;51.232;6.826;2023-09-19T07:23:13;22.80;;;4.03;;
37049;SDS011;22958;51.232;6.826;2023-09-19T07:25:43;17.48;;;3.65;;
37049;SDS011;22958;51.232;6.826;2023-09-19T07:28:08;28.03;;;3.63;;
37049;SDS011;22958;51.232;6.826;2023-09-19T07:30:36;23.03;;;4.10;;
37049;SDS011;22958;51.232;6.826;2023-09-19T07:33:06;22.85;;;4.07;;
37049;SDS011;22958;51.232;6.826;2023-09-19T07:35:32;22.97;;;3.13;;
37049;SDS011;22958;51.232;6.826;2023-09-19T07:37:58;15.50;;;2.80;;
37049;SDS011;22958;51.232;6.826;2023-09-19T07:40:26;23.27;;;3.47;;
37049;SDS011;22958;51.232;6.826;2023-09-19T07:42:53;18.17;;;3.28;;
37049;SDS011;22958;51.232;6.826;2023-09-19T07:45:26;17.10;;;3.10;;
37049;SDS011;22958;51.232;6.826;2023-09-19T07:47:55;18.70;;;3.67;;
37049;SDS011;22958;51.232;6.826;2023-09-19T07:50:21;13.60;;;2.90;;
37049;SDS011;22958;51.232;6.826;2023-09-19T07:52:47;25.27;;;3.53;;
37049;SDS011;22958;51.232;6.826;2023-09-19T07:55:15;18.73;;;3.08;;
37049;SDS011;22958;51.232;6.826;2023-09-19T07:57:45;21.65;;;4.22;;
37049;SDS011;22958;51.232;6.826;2023-09-19T08:00:11;19.75;;;3.75;;
37049;SDS011;22958;51.232;6.826;2023-09-19T08:02:38;16.15;;;2.55;;
37049;SDS011;22958;51.232;6.826;2023-09-19T08:05:08;24.48;;;2.83;;
37049;SDS011;22958;51.232;6.826;2023-09-19T08:07:36;20.60;;;3.08;;
37049;SDS011;22958;51.232;6.826;2023-09-19T08:10:06;19.88;;;2.95;;
37049;SDS011;22958;51.232;6.826;2023-09-19T08:12:40;16.92;;;3.28;;
37049;SDS011;22958;51.232;6.826;2023-09-19T08:15:15;21.42;;;3.20;;
37049;SDS011;22958;51.232;6.826;2023-09-19T08:17:42;17.10;;;3.17;;
37049;SDS011;22958;51.232;6.826;2023-09-19T08:20:08;19.27;;;3.40;;
37049;SDS011;22958;51.232;6.826;2023-09-19T08:22:41;14.82;;;3.15;;
37049;SDS011;22958;51.232;6.826;2023-09-19T08:25:09;17.83;;;3.50;;
37049;SDS011;22958;51.232;6.826;2023-09-19T08:27:34;24.03;;;3.53;;
37049;SDS011;22958;51.232;6.826;2023-09-19T08:30:01;17.60;;;3.13;;
37049;SDS011;22958;51.232;6.826;2023-09-19T08:34:53;18.95;;;2.80;;
37049;SDS011;22958;51.232;6.826;2023-09-19T08:37:19;18.27;;;2.80;;
37049;SDS011;22958;51.232;6.826;2023-09-19T08:39:44;14.50;;;3.33;;
37049;SDS011;22958;51.232;6.826;2023-09-19T08:42:10;17.33;;;3.30;;
37049;SDS011;22958;51.232;6.826;2023-09-19T08:44:41;22.25;;;4.05;;
37049;SDS011;22958;51.232;6.826;2023-09-19T08:47:09;23.23;;;3.53;;
37049;SDS011;22958;51.232;6.826;2023-09-19T08:49:45;22.30;;;3.05;;
37049;SDS011;22958;51.232;6.826;2023-09-19T08:52:32;19.15;;;3.10;;
37049;SDS011;22958;51.232;6.826;2023-09-19T08:55:01;17.83;;;3.20;;
37049;SDS011;22958;51.232;6.826;2023-09-19T08:57:30;27.90;;;3.72;;
37049;SDS011;22958;51.232;6.826;2023-09-19T09:00:01;18.77;;;3.17;;
37049;SDS011;22958;51.232;6.826;2023-09-19T09:02:30;16.42;;;3.08;;
37049;SDS011;22958;51.232;6.826;2023-09-19T09:04:59;29.33;;;3.80;;
37049;SDS011;22958;51.232;6.826;2023-09-19T09:07:25;24.02;;;3.75;;
37049;SDS011;22958;51.232;6.826;2023-09-19T09:09:52;18.38;;;3.58;;
37049;SDS011;22958;51.232;6.826;2023-09-19T09:12:18;18.42;;;2.63;;
37049;SDS011;22958;51.232;6.826;2023-09-19T09:14:47;23.83;;;2.93;;
37049;SDS011;22958;51.232;6.826;2023-09-19T09:17:16;24.17;;;3.47;;
37049;SDS011;22958;51.232;6.826;2023-09-19T09:19:45;27.58;;;3.38;;
37049;SDS011;22958;51.232;6.826;2023-09-19T09:22:11;15.93;;;3.50;;
37049;SDS011;22958;51.232;6.826;2023-09-19T09:24:37;24.93;;;3.57;;
37049;SDS011;22958;51.232;6.826;2023-09-19T09:27:18;15.27;;;3.38;;
37049;SDS011;22958;51.232;6.826;2023-09-19T09:29:45;14.93;;;3.10;;
37049;SDS011;22958;51.232;6.826;2023-09-19T09:34:50;16.52;;;2.78;;
37049;SDS011;22958;51.232;6.826;2023-09-19T09:37:23;15.50;;;2.65;;
37049;SDS011;22958;51.232;6.826;2023-09-19T09:39:55;17.75;;;3.30;;
37049;SDS011;22958;51.232;6.826;2023-09-19T09:42:29;19.25;;;3.30;;
37049;SDS011;22958;51.232;6.826;2023-09-19T09:45:13;24.40;;;4.10;;
37049;SDS011;22958;51.232;6.826;2023-09-19T09:47:53;30.63;;;3.92;;
37049;SDS011;22958;51.232;6.826;2023-09-19T09:53:25;19.38;;;3.03;;
37049;SDS011;22958;51.232;6.826;2023-09-19T09:58:35;16.75;;;3.40;;
37049;SDS011;22958;51.232;6.826;2023-09-19T10:01:03;17.27;;;3.40;;
37049;SDS011;22958;51.232;6.826;2023-09-19T10:03:40;12.85;;;2.58;;
37049;SDS011;22958;51.232;6.826;2023-09-19T10:06:12;15.30;;;3.67;;
37049;SDS011;22958;51.232;6.826;2023-09-19T10:09:24;15.15;;;2.50;;
37049;SDS011;22958;51.232;6.826;2023-09-19T10:11:48;15.63;;;3.10;;
37049;SDS011;22958;51.232;6.826;2023-09-19T10:14:29;14.88;;;2.72;;
37049;SDS011;22958;51.232;6.826;2023-09-19T10:16:58;14.82;;;2.92;;
37049;SDS011;22958;51.232;6.826;2023-09-19T10:19:29;15.45;;;3.72;;
37049;SDS011;22958;51.232;6.826;2023-09-19T10:22:01;17.63;;;3.45;;
37049;SDS011;22958;51.232;6.826;2023-09-19T10:24:28;17.10;;;2.88;;
37049;SDS011;22958;51.232;6.826;2023-09-19T10:26:56;21.58;;;2.97;;
37049;SDS011;22958;51.232;6.826;2023-09-19T10:29:22;19.20;;;2.65;;
37049;SDS011;22958;51.232;6.826;2023-09-19T10:31:52;19.85;;;3.33;;
37049;SDS011;22958;51.232;6.826;2023-09-19T10:34:19;20.83;;;3.10;;
37049;SDS011;22958;51.232;6.826;2023-09-19T10:36:47;13.07;;;3.17;;
37049;SDS011;22958;51.232;6.826;2023-09-19T10:39:14;18.20;;;3.03;;
37049;SDS011;22958;51.232;6.826;2023-09-19T10:41:45;13.85;;;3.28;;
37049;SDS011;22958;51.232;6.826;2023-09-19T10:44:25;18.13;;;4.20;;
37049;SDS011;22958;51.232;6.826;2023-09-19T10:46:51;13.73;;;3.20;;
37049;SDS011;22958;51.232;6.826;2023-09-19T10:49:19;17.50;;;3.50;;
37049;SDS011;22958;51.232;6.826;2023-09-19T10:51:46;12.02;;;2.85;;
37049;SDS011;22958;51.232;6.826;2023-09-19T10:54:15;11.20;;;2.72;;
37049;SDS011;22958;51.232;6.826;2023-09-19T10:56:46;13.52;;;3.13;;
37049;SDS011;22958;51.232;6.826;2023-09-19T10:59:15;21.50;;;2.95;;
37049;SDS011;22958;51.232;6.826;2023-09-19T11:04:33;11.68;;;2.83;;
37049;SDS011;22958;51.232;6.826;2023-09-19T11:07:04;12.10;;;3.00;;
37049;SDS011;22958;51.232;6.826;2023-09-19T11:14:54;15.27;;;2.78;;
37049;SDS011;22958;51.232;6.826;2023-09-19T11:30:51;12.55;;;2.72;;
37049;SDS011;22958;51.232;6.826;2023-09-19T11:33:28;11.57;;;2.65;;
37049;SDS011;22958;51.232;6.826;2023-09-19T11:36:07;15.70;;;2.70;;
37049;SDS011;22958;51.232;6.826;2023-09-19T11:43:49;13.35;;;2.83;;
37049;SDS011;22958;51.232;6.826;2023-09-19T11:46:24;14.57;;;3.00;;
37049;SDS011;22958;51.232;6.826;2023-09-19T11:48:50;12.82;;;2.80;;
37049;SDS011;22958;51.232;6.826;2023-09-19T11:51:23;14.68;;;4.05;;
37049;SDS011;22958;51.232;6.826;2023-09-19T11:53:52;13.05;;;2.75;;
37049;SDS011;22958;51.232;6.826;2023-09-19T11:56:20;15.30;;;3.00;;
37049;SDS011;22958;51.232;6.826;2023-09-19T11:58:52;10.65;;;2.92;;
37049;SDS011;22958;51.232;6.826;2023-09-19T12:01:42;13.13;;;3.05;;
37049;SDS011;22958;51.232;6.826;2023-09-19T12:04:15;17.15;;;3.17;;
37049;SDS011;22958;51.232;6.826;2023-09-19T12:06:43;8.65;;;2.55;;
37049;SDS011;22958;51.232;6.826;2023-09-19T12:09:21;15.52;;;2.70;;
37049;SDS011;22958;51.232;6.826;2023-09-19T12:11:47;12.93;;;2.55;;
37049;SDS011;22958;51.232;6.826;2023-09-19T12:14:24;8.57;;;2.67;;
37049;SDS011;22958;51.232;6.826;2023-09-19T12:16:54;9.07;;;2.38;;
37049;SDS011;22958;51.232;6.826;2023-09-19T12:19:21;12.23;;;3.20;;
37049;SDS011;22958;51.232;6.826;2023-09-19T12:21:55;9.15;;;2.42;;
37049;SDS011;22958;51.232;6.826;2023-09-19T12:24:28;9.68;;;2.63;;
37049;SDS011;22958;51.232;6.826;2023-09-19T12:26:55;7.10;;;2.10;;
37049;SDS011;22958;51.232;6.826;2023-09-19T12:29:26;12.02;;;2.38;;
37049;SDS011;22958;51.232;6.826;2023-09-19T12:31:53;9.82;;;2.45;;
37049;SDS011;22958;51.232;6.826;2023-09-19T12:34:23;10.43;;;2.60;;
37049;SDS011;22958;51.232;6.826;2023-09-19T12:39:48;7.72;;;2.65;;
37049;SDS011;22958;51.232;6.826;2023-09-19T12:42:16;10.25;;;2.08;;
37049;SDS011;22958;51.232;6.826;2023-09-19T12:44:44;12.65;;;2.78;;
37049;SDS011;22958;51.232;6.826;2023-09-19T12:47:15;13.93;;;2.95;;
37049;SDS011;22958;51.232;6.826;2023-09-19T12:52:55;11.70;;;2.65;;
37049;SDS011;22958;51.232;6.826;2023-09-19T12:55:27;9.43;;;2.33;;
37049;SDS011;22958;51.232;6.826;2023-09-19T13:00:40;11.05;;;2.17;;
37049;SDS011;22958;51.232;6.826;2023-09-19T13:05:57;13.00;;;2.15;;
37049;SDS011;22958;51.232;6.826;2023-09-19T13:25:04;11.38;;;2.20;;
37049;SDS011;22958;51.232;6.826;2023-09-19T13:27:31;7.10;;;1.65;;
37049;SDS011;22958;51.232;6.826;2023-09-19T13:29:58;9.75;;;1.70;;
37049;SDS011;22958;51.232;6.826;2023-09-19T13:32:24;10.20;;;2.42;;
37049;SDS011;22958;51.232;6.826;2023-09-19T13:34:50;21.02;;;1.80;;
37049;SDS011;22958;51.232;6.826;2023-09-19T13:37:16;9.50;;;1.73;;
37049;SDS011;22958;51.232;6.826;2023-09-19T13:42:12;8.30;;;1.70;;
37049;SDS011;22958;51.232;6.826;2023-09-19T13:44:38;13.40;;;2.17;;
37049;SDS011;22958;51.232;6.826;2023-09-19T13:47:06;7.47;;;1.95;;
37049;SDS011;22958;51.232;6.826;2023-09-19T13:49:34;9.40;;;1.63;;
37049;SDS011;22958;51.232;6.826;2023-09-19T13:52:01;8.95;;;1.38;;
37049;SDS011;22958;51.232;6.826;2023-09-19T13:54:29;10.18;;;1.48;;
37049;SDS011;22958;51.232;6.826;2023-09-19T13:56:56;5.57;;;2.13;;
37049;SDS011;22958;51.232;6.826;2023-09-19T13:59:28;7.63;;;1.58;;
37049;SDS011;22958;51.232;6.826;2023-09-19T14:01:53;10.67;;;1.70;;
37049;SDS011;22958;51.232;6.826;2023-09-19T14:04:19;7.83;;;1.63;;
37049;SDS011;22958;51.232;6.826;2023-09-19T14:06:46;7.65;;;1.85;;
37049;SDS011;22958;51.232;6.826;2023-09-19T14:09:11;7.07;;;2.00;;
37049;SDS011;22958;51.232;6.826;2023-09-19T14:11:38;6.72;;;1.42;;
37049;SDS011;22958;51.232;6.826;2023-09-19T14:14:04;9.07;;;1.75;;
37049;SDS011;22958;51.232;6.826;2023-09-19T14:16:29;5.80;;;1.13;;
37049;SDS011;22958;51.232;6.826;2023-09-19T14:18:56;4.18;;;1.27;;
37049;SDS011;22958;51.232;6.826;2023-09-19T14:21:22;5.93;;;1.95;;
37049;SDS011;22958;51.232;6.826;2023-09-19T14:23:48;11.37;;;1.50;;
37049;SDS011;22958;51.232;6.826;2023-09-19T14:26:14;5.60;;;1.67;;
37049;SDS011;22958;51.232;6.826;2023-09-19T14:28:41;8.38;;;1.27;;
37049;SDS011;22958;51.232;6.826;2023-09-19T14:31:07;11.67;;;1.50;;
37049;SDS011;22958;51.232;6.826;2023-09-19T14:33:34;11.63;;;1.67;;
37049;SDS011;22958;51.232;6.826;2023-09-19T14:36:03;10.43;;;1.45;;
37049;SDS011;22958;51.232;6.826;2023-09-19T14:38:34;8.57;;;1.60;;
37049;SDS011;22958;51.232;6.826;2023-09-19T14:43:27;6.72;;;1.83;;
37049;SDS011;22958;51.232;6.826;2023-09-19T14:45:54;3.78;;;1.10;;
37049;SDS011;22958;51.232;6.826;2023-09-19T14:48:19;7.90;;;1.37;;
37049;SDS011;22958;51.232;6.826;2023-09-19T14:50:45;9.07;;;1.70;;
37049;SDS011;22958;51.232;6.826;2023-09-19T14:53:13;7.88;;;1.58;;
37049;SDS011;22958;51.232;6.826;2023-09-19T14:55:38;9.53;;;1.37;;
37049;SDS011;22958;51.232;6.826;2023-09-19T14:58:09;5.97;;;1.60;;
37049;SDS011;22958;51.232;6.826;2023-09-19T15:00:35;8.67;;;1.90;;
37049;SDS011;22958;51.232;6.826;2023-09-19T15:03:00;5.63;;;2.07;;
37049;SDS011;22958;51.232;6.826;2023-09-19T15:05:27;12.33;;;2.10;;
37049;SDS011;22958;51.232;6.826;2023-09-19T15:07:55;12.82;;;0.85;;
37049;SDS011;22958;51.232;6.826;2023-09-19T15:12:47;7.55;;;1.65;;
37049;SDS011;22958;51.232;6.826;2023-09-19T15:15:13;6.27;;;1.70;;
37049;SDS011;22958;51.232;6.826;2023-09-19T15:17:39;3.03;;;0.97;;
37049;SDS011;22958;51.232;6.826;2023-09-19T15:20:06;7.40;;;1.10;;
37049;SDS011;22958;51.232;6.826;2023-09-19T15:22:33;6.70;;;1.33;;
37049;SDS011;22958;51.232;6.826;2023-09-19T15:24:59;7.30;;;1.60;;
37049;SDS011;22958;51.232;6.826;2023-09-19T15:27:26;4.22;;;1.20;;
37049;SDS011;22958;51.232;6.826;2023-09-19T15:30:01;11.18;;;1.17;;
37049;SDS011;22958;51.232;6.826;2023-09-19T15:32:28;8.23;;;1.60;;
37049;SDS011;22958;51.232;6.826;2023-09-19T15:34:54;5.63;;;0.80;;
37049;SDS011;22958;51.232;6.826;2023-09-19T15:37:20;3.55;;;1.00;;
37049;SDS011;22958;51.232;6.826;2023-09-19T15:39:45;9.73;;;1.10;;
37049;SDS011;22958;51.232;6.826;2023-09-19T15:42:12;8.80;;;1.40;;
37049;SDS011;22958;51.232;6.826;2023-09-19T15:44:37;5.10;;;1.40;;
37049;SDS011;22958;51.232;6.826;2023-09-19T15:47:03;4.32;;;1.10;;
37049;SDS011;22958;51.232;6.826;2023-09-19T15:49:29;5.63;;;1.58;;
37049;SDS011;22958;51.232;6.826;2023-09-19T15:51:55;8.13;;;1.07;;
37049;SDS011;22958;51.232;6.826;2023-09-19T15:54:21;9.45;;;1.75;;
37049;SDS011;22958;51.232;6.826;2023-09-19T15:56:46;5.72;;;1.40;;
37049;SDS011;22958;51.232;6.826;2023-09-19T15:59:13;5.43;;;1.02;;
37049;SDS011;22958;51.232;6.826;2023-09-19T16:01:43;5.18;;;1.38;;
37049;SDS011;22958;51.232;6.826;2023-09-19T16:04:09;5.45;;;1.40;;
37049;SDS011;22958;51.232;6.826;2023-09-19T16:06:35;5.05;;;1.50;;
37049;SDS011;22958;51.232;6.826;2023-09-19T16:09:03;5.00;;;1.42;;
37049;SDS011;22958;51.232;6.826;2023-09-19T16:11:29;8.57;;;1.70;;
37049;SDS011;22958;51.232;6.826;2023-09-19T16:13:56;5.53;;;1.20;;
37049;SDS011;22958;51.232;6.826;2023-09-19T16:16:23;5.07;;;1.23;;
37049;SDS011;22958;51.232;6.826;2023-09-19T16:18:50;8.23;;;1.55;;
37049;SDS011;22958;51.232;6.826;2023-09-19T16:21:28;4.00;;;1.15;;
37049;SDS011;22958;51.232;6.826;2023-09-19T16:23:55;12.93;;;1.67;;